createdAt,value
2019-05-07T00:01:44.685Z,100701.53
2019-05-07T00:04:13.098Z,100700.73
2019-05-07T00:06:43.426Z,100705.34
2019-05-07T00:09:13.732Z,100700.69
2019-05-07T00:11:42.681Z,100699.88
2019-05-07T00:14:12.622Z,100697.72
2019-05-07T00:16:42.284Z,100694.77
2019-05-07T00:19:12.874Z,100698.16
2019-05-07T00:21:42.335Z,100701.94
2019-05-07T00:24:13.168Z,100698.50
2019-05-07T00:26:43.073Z,100697.64
2019-05-07T00:29:12.948Z,100690.01
2019-05-07T00:31:42.146Z,100693.75
2019-05-07T00:34:12.619Z,100695.05
2019-05-07T00:36:52.501Z,100692.48
2019-05-07T00:39:39.691Z,100688.16
2019-05-07T00:42:25.836Z,100688.98
2019-05-07T00:45:13.258Z,100693.80
2019-05-07T00:47:29.235Z,100689.92
2019-05-07T00:49:59.282Z,100693.23
2019-05-07T00:52:27.894Z,100686.95
2019-05-07T00:54:56.310Z,100689.53
2019-05-07T00:57:24.726Z,100690.75
2019-05-07T00:59:53.157Z,100684.84
2019-05-07T01:02:23.312Z,100682.30
2019-05-07T01:04:53.199Z,100685.26
2019-05-07T01:07:22.872Z,100687.39
2019-05-07T01:09:52.387Z,100684.40
2019-05-07T01:12:22.171Z,100683.58
2019-05-07T01:14:52.826Z,100688.25
2019-05-07T01:17:22.683Z,100676.83
2019-05-07T01:19:53.218Z,100678.50
2019-05-07T01:22:22.230Z,100673.83
2019-05-07T01:24:52.537Z,100681.45
2019-05-07T01:27:22.639Z,100684.44
2019-05-07T01:29:52.763Z,100681.47
2019-05-07T01:32:34.742Z,100687.00
2019-05-07T01:35:05.391Z,100685.30
2019-05-07T01:37:33.830Z,100686.58
2019-05-07T01:40:03.085Z,100688.69
2019-05-07T01:42:32.705Z,100695.05
2019-05-07T01:45:02.273Z,100690.36
2019-05-07T01:47:33.009Z,100697.16
2019-05-07T01:50:03.076Z,100690.35
2019-05-07T01:52:33.175Z,100704.32
2019-05-07T01:55:03.209Z,100702.20
2019-05-07T01:57:32.634Z,100700.52
2019-05-07T02:00:02.554Z,100699.25
2019-05-07T02:02:33.008Z,100698.80
2019-05-07T02:05:05.795Z,100699.27
2019-05-07T02:07:38.567Z,100695.84
2019-05-07T02:10:09.264Z,100697.92
2019-05-07T02:12:38.761Z,100695.73
2019-05-07T02:15:08.232Z,100695.36
2019-05-07T02:17:36.670Z,100696.17
2019-05-07T02:20:06.840Z,100706.36
2019-05-07T02:22:35.250Z,100701.25
2019-05-07T02:25:04.182Z,100702.94
2019-05-07T02:27:32.991Z,100704.62
2019-05-07T02:30:04.339Z,100704.25
2019-05-07T02:32:33.364Z,100698.33
2019-05-07T02:35:03.951Z,100701.28
2019-05-07T02:37:47.145Z,100700.80
2019-05-07T02:40:14.324Z,100711.41
2019-05-07T02:42:44.227Z,100704.66
2019-05-07T02:45:14.829Z,100710.55
2019-05-07T02:47:43.889Z,100709.23
2019-05-07T02:50:32.922Z,100710.55
2019-05-07T02:53:18.390Z,100712.20
2019-05-07T02:55:48.531Z,100708.77
2019-05-07T02:58:16.963Z,100710.50
2019-05-07T03:00:45.475Z,100715.98
2019-05-07T03:03:14.083Z,100719.28
2019-05-07T03:05:43.310Z,100714.16
2019-05-07T03:08:13.622Z,100718.44
2019-05-07T03:10:43.372Z,100715.41
2019-05-07T03:13:13.722Z,100717.56
2019-05-07T03:15:43.462Z,100712.91
2019-05-07T03:18:13.765Z,100715.03
2019-05-07T03:20:50.070Z,100711.27
2019-05-07T03:23:22.611Z,100715.48
2019-05-07T03:25:54.168Z,100719.25
2019-05-07T03:28:23.733Z,100713.70
2019-05-07T03:31:05.948Z,100712.47
2019-05-07T03:33:37.276Z,100716.23
2019-05-07T03:36:08.094Z,100722.11
2019-05-07T03:38:36.697Z,100721.66
2019-05-07T03:41:05.225Z,100719.86
2019-05-07T03:43:33.611Z,100725.37
2019-05-07T03:46:06.111Z,100732.55
2019-05-07T03:48:36.157Z,100727.88
2019-05-07T03:51:04.660Z,100730.79
2019-05-07T03:53:33.938Z,100734.47
2019-05-07T03:56:04.142Z,100736.22
2019-05-07T03:58:34.029Z,100731.56
2019-05-07T04:01:04.381Z,100734.97
2019-05-07T04:03:34.204Z,100735.36
2019-05-07T04:06:04.017Z,100736.19
2019-05-07T04:08:33.620Z,100735.78
2019-05-07T04:11:03.512Z,100739.55
2019-05-07T04:13:33.550Z,100748.38
2019-05-07T04:16:04.077Z,100738.98
2019-05-07T04:18:33.142Z,100744.55
2019-05-07T04:21:03.622Z,100741.17
2019-05-07T04:23:34.128Z,100741.94
2019-05-07T04:26:06.751Z,100745.80
2019-05-07T04:28:36.806Z,100747.06
2019-05-07T04:31:05.302Z,100747.52
2019-05-07T04:33:35.393Z,100750.92
2019-05-07T04:36:05.451Z,100757.70
2019-05-07T04:38:33.888Z,100758.16
2019-05-07T04:41:03.888Z,100761.52
2019-05-07T04:43:33.691Z,100753.91
2019-05-07T04:46:03.393Z,100763.31
2019-05-07T04:48:33.986Z,100760.38
2019-05-07T04:51:03.916Z,100759.97
2019-05-07T04:53:32.977Z,100761.62
2019-05-07T04:56:03.298Z,100765.49
2019-05-07T04:58:33.912Z,100758.66
2019-05-07T05:01:03.212Z,100755.67
2019-05-07T05:03:34.638Z,100765.06
2019-05-07T05:06:02.753Z,100764.35
2019-05-07T05:08:32.485Z,100765.23
2019-05-07T05:11:03.377Z,100766.14
2019-05-07T05:13:33.132Z,100764.00
2019-05-07T05:16:03.493Z,100768.26
2019-05-07T05:18:32.970Z,100771.66
2019-05-07T05:21:03.157Z,100774.27
2019-05-07T05:23:33.300Z,100771.79
2019-05-07T05:26:01.990Z,100780.73
2019-05-07T05:28:32.364Z,100781.59
2019-05-07T05:31:03.405Z,100780.81
2019-05-07T05:33:32.430Z,100784.30
2019-05-07T05:36:03.073Z,100782.69
2019-05-07T05:38:32.914Z,100783.22
2019-05-07T05:41:02.715Z,100786.24
2019-05-07T05:43:49.516Z,100784.98
2019-05-07T05:46:19.616Z,100784.08
2019-05-07T05:48:48.029Z,100786.75
2019-05-07T05:51:18.117Z,100788.86
2019-05-07T05:53:48.181Z,100788.87
2019-05-07T05:56:35.970Z,100789.67
2019-05-07T05:59:24.181Z,100790.30
2019-05-07T06:02:06.691Z,100785.86
2019-05-07T06:04:36.478Z,100790.09
2019-05-07T06:07:11.438Z,100791.79
2019-05-07T06:09:44.099Z,100791.66
2019-05-07T06:12:32.718Z,100795.80
2019-05-07T06:15:18.259Z,100797.17
2019-05-07T06:17:48.434Z,100804.55
2019-05-07T06:20:18.737Z,100801.85
2019-05-07T06:22:48.803Z,100806.95
2019-05-07T06:25:25.445Z,100809.11
2019-05-07T06:27:54.382Z,100813.59
2019-05-07T06:30:22.938Z,100813.84
2019-05-07T06:32:52.301Z,100814.77
2019-05-07T06:35:22.977Z,100817.11
2019-05-07T06:37:52.147Z,100811.00
2019-05-07T06:40:42.248Z,100817.08
2019-05-07T06:43:12.434Z,100813.28
2019-05-07T06:45:42.572Z,100812.79
2019-05-07T06:48:12.632Z,100811.93
2019-05-07T06:50:43.268Z,100817.20
2019-05-07T06:53:12.177Z,100827.16
2019-05-07T06:55:42.687Z,100826.84
2019-05-07T06:58:12.263Z,100821.13
2019-05-07T07:00:42.570Z,100825.36
2019-05-07T07:03:15.338Z,100824.11
2019-05-07T07:05:45.385Z,100825.02
2019-05-07T07:08:22.991Z,100823.14
2019-05-07T07:11:02.603Z,100823.80
2019-05-07T07:13:32.186Z,100816.58
2019-05-07T07:16:01.888Z,100820.50
2019-05-07T07:18:32.358Z,100823.13
2019-05-07T07:21:02.202Z,100825.89
2019-05-07T07:23:32.438Z,100820.23
2019-05-07T07:26:03.113Z,100818.12
2019-05-07T07:28:32.611Z,100818.58
2019-05-07T07:31:15.136Z,100819.23
2019-05-07T07:33:47.820Z,100816.94
2019-05-07T07:36:17.155Z,100813.26
2019-05-07T07:38:45.618Z,100812.95
2019-05-07T07:41:18.358Z,100809.39
2019-05-07T07:43:46.835Z,100811.55
2019-05-07T07:46:16.668Z,100806.66
2019-05-07T07:48:45.491Z,100805.28
2019-05-07T07:51:14.260Z,100809.40
2019-05-07T07:53:43.136Z,100806.36
2019-05-07T07:56:29.365Z,100803.84
2019-05-07T07:59:05.589Z,100803.27
2019-05-07T08:01:47.407Z,100797.55
2019-05-07T08:04:15.892Z,100795.95
2019-05-07T08:06:45.649Z,100795.86
2019-05-07T08:09:14.092Z,100801.30
2019-05-07T08:11:42.720Z,100800.86
2019-05-07T08:14:12.631Z,100804.22
2019-05-07T08:16:42.918Z,100813.97
2019-05-07T08:19:19.360Z,100801.81
2019-05-07T08:21:42.112Z,100801.28
2019-05-07T08:24:12.224Z,100797.89
2019-05-07T08:26:42.863Z,100799.10
2019-05-07T08:29:11.950Z,100792.47
2019-05-07T08:31:45.142Z,100793.83
2019-05-07T08:34:17.901Z,100791.48
2019-05-07T08:36:46.462Z,100795.10
2019-05-07T08:39:14.921Z,100794.08
2019-05-07T08:41:43.344Z,100793.60
2019-05-07T08:44:15.612Z,100786.00
2019-05-07T08:46:52.085Z,100782.29
2019-05-07T08:49:33.406Z,100782.86
2019-05-07T08:52:03.337Z,100784.03
2019-05-07T08:54:32.260Z,100783.50
2019-05-07T08:57:02.016Z,100786.39
2019-05-07T08:59:32.083Z,100790.14
2019-05-07T09:02:03.057Z,100785.11
2019-05-07T09:04:32.719Z,100781.48
2019-05-07T09:07:02.739Z,100778.93
2019-05-07T09:09:32.349Z,100783.23
2019-05-07T09:12:03.084Z,100783.44
2019-05-07T09:14:32.066Z,100780.75
2019-05-07T09:17:02.473Z,100783.11
2019-05-07T09:19:32.371Z,100783.70
2019-05-07T09:22:02.270Z,100786.36
2019-05-07T09:24:33.273Z,100780.28
2019-05-07T09:27:02.934Z,100780.39
2019-05-07T09:29:33.012Z,100770.48
2019-05-07T09:32:22.735Z,100773.31
2019-05-07T09:34:52.903Z,100766.74
2019-05-07T09:37:25.533Z,100765.80
2019-05-07T09:39:53.935Z,100776.23
2019-05-07T09:42:22.683Z,100775.80
2019-05-07T09:44:52.882Z,100773.04
2019-05-07T09:47:21.918Z,100775.53
2019-05-07T09:50:01.959Z,100775.84
2019-05-07T09:52:22.650Z,100766.63
2019-05-07T09:54:52.265Z,100760.37
2019-05-07T09:57:30.077Z,100770.72
2019-05-07T09:59:53.045Z,100764.62
2019-05-07T10:02:22.695Z,100766.93
2019-05-07T10:04:52.724Z,100764.98
2019-05-07T10:07:22.334Z,100765.06
2019-05-07T10:09:52.348Z,100762.30
2019-05-07T10:12:25.632Z,100759.02
2019-05-07T10:14:54.137Z,100747.34
2019-05-07T10:17:24.281Z,100752.95
2019-05-07T10:19:52.775Z,100749.89
2019-05-07T10:22:22.762Z,100749.52
2019-05-07T10:24:52.215Z,100746.31
2019-05-07T10:27:21.827Z,100750.95
2019-05-07T10:29:52.895Z,100753.19
2019-05-07T10:32:21.072Z,100746.67
2019-05-07T10:34:49.518Z,100740.00
2019-05-07T10:37:18.020Z,100743.73
2019-05-07T10:39:46.515Z,100732.58
2019-05-07T10:42:14.944Z,100727.71
2019-05-07T10:44:47.749Z,100727.57
2019-05-07T10:47:33.883Z,100729.72
2019-05-07T10:50:31.709Z,100728.20
2019-05-07T10:52:49.578Z,100731.20
2019-05-07T10:55:18.061Z,100727.72
2019-05-07T10:57:46.480Z,100733.44
2019-05-07T11:00:18.188Z,100728.61
2019-05-07T11:02:46.723Z,100725.64
2019-05-07T11:05:15.835Z,100731.00
2019-05-07T11:07:44.330Z,100732.64
2019-05-07T11:10:13.785Z,100719.77
2019-05-07T11:12:42.635Z,100721.84
2019-05-07T11:15:12.620Z,100713.81
2019-05-07T11:17:48.751Z,100711.64
2019-05-07T11:20:18.732Z,100710.70
2019-05-07T11:22:47.215Z,100711.84
2019-05-07T11:25:15.690Z,100714.78
2019-05-07T11:27:44.187Z,100713.44
2019-05-07T11:30:14.346Z,100701.45
2019-05-07T11:32:43.038Z,100705.55
2019-05-07T11:35:14.638Z,100691.92
2019-05-07T11:37:44.088Z,100697.51
2019-05-07T11:40:13.104Z,100696.62
2019-05-07T11:42:58.215Z,100689.04
2019-05-07T11:45:37.235Z,100692.57
2019-05-07T11:48:06.299Z,100685.12
2019-05-07T11:51:01.500Z,100675.94
2019-05-07T11:53:25.995Z,100675.71
2019-05-07T11:55:54.421Z,100677.80
2019-05-07T11:58:22.927Z,100676.12
2019-05-07T12:03:42.758Z,100669.66
2019-05-07T12:06:12.429Z,100673.38
2019-05-07T12:08:48.046Z,100668.38
2019-05-07T12:11:11.929Z,100666.53
2019-05-07T12:13:42.564Z,100668.47
2019-05-07T12:16:13.951Z,100662.77
2019-05-07T12:18:42.946Z,100662.77
2019-05-07T12:21:18.345Z,100657.69
2019-05-07T12:23:42.179Z,100663.38
2019-05-07T12:26:12.584Z,100664.86
2019-05-07T12:28:41.860Z,100658.46
2019-05-07T12:31:27.175Z,100658.57
2019-05-07T12:34:15.392Z,100658.97
2019-05-07T12:36:43.815Z,100654.24
2019-05-07T12:39:12.876Z,100647.48
2019-05-07T12:41:41.883Z,100649.72
2019-05-07T12:44:12.753Z,100645.70
2019-05-07T12:46:42.297Z,100644.06
2019-05-07T12:49:12.019Z,100642.81
2019-05-07T12:51:42.769Z,100636.38
2019-05-07T12:54:15.795Z,100634.73
2019-05-07T12:56:44.213Z,100629.53
2019-05-07T12:59:12.948Z,100629.42
2019-05-07T13:01:48.779Z,100628.25
2019-05-07T13:04:22.164Z,100623.51
2019-05-07T13:06:52.460Z,100614.39
2019-05-07T13:09:21.959Z,100617.44
2019-05-07T13:11:52.529Z,100618.30
2019-05-07T13:14:21.834Z,100622.28
2019-05-07T13:16:52.271Z,100617.25
2019-05-07T13:19:22.620Z,100614.02
2019-05-07T13:21:51.293Z,100608.86
2019-05-07T13:24:19.762Z,100609.52
2019-05-07T13:26:48.207Z,100603.81
2019-05-07T13:29:16.618Z,100602.59
2019-05-07T13:31:45.604Z,100602.59
2019-05-07T13:34:14.895Z,100598.60
2019-05-07T13:36:45.412Z,100602.09
2019-05-07T13:39:15.642Z,100596.99
2019-05-07T13:41:45.754Z,100597.83
2019-05-07T13:44:22.889Z,100590.27
2019-05-07T13:46:53.362Z,100586.77
2019-05-07T13:49:22.039Z,100579.11
2019-05-07T13:52:02.857Z,100575.28
2019-05-07T13:54:21.859Z,100584.47
2019-05-07T13:56:52.393Z,100580.98
2019-05-07T13:59:22.302Z,100569.75
2019-05-07T14:01:52.456Z,100565.02
2019-05-07T14:04:22.281Z,100558.55
2019-05-07T14:06:52.956Z,100553.46
2019-05-07T14:09:24.390Z,100552.37
2019-05-07T14:11:53.388Z,100548.77
2019-05-07T14:14:22.559Z,100552.56
2019-05-07T14:16:53.071Z,100549.31
2019-05-07T14:19:22.384Z,100546.23
2019-05-07T14:21:52.556Z,100549.84
2019-05-07T14:24:22.398Z,100549.88
2019-05-07T14:26:52.752Z,100543.45
2019-05-07T14:29:24.334Z,100541.91
2019-05-07T14:31:53.162Z,100541.14
2019-05-07T14:34:31.960Z,100535.92
2019-05-07T14:37:06.364Z,100542.73
2019-05-07T14:39:34.847Z,100539.02
2019-05-07T14:42:04.982Z,100538.23
2019-05-07T14:44:49.271Z,100537.14
2019-05-07T14:47:19.243Z,100527.24
2019-05-07T14:49:48.619Z,100530.52
2019-05-07T14:52:28.941Z,100524.77
2019-05-07T14:54:47.753Z,100529.44
2019-05-07T14:57:16.251Z,100532.27
2019-05-07T14:59:44.656Z,100532.16
2019-05-07T15:02:13.425Z,100526.42
2019-05-07T15:04:42.071Z,100519.53
2019-05-07T15:07:12.021Z,100522.02
2019-05-07T15:09:42.459Z,100520.45
2019-05-07T15:12:12.440Z,100520.06
2019-05-07T15:14:42.157Z,100512.06
2019-05-07T15:17:12.897Z,100511.97
2019-05-07T15:19:42.736Z,100506.41
2019-05-07T15:22:25.401Z,100510.88
2019-05-07T15:24:53.803Z,100508.21
2019-05-07T15:27:23.681Z,100508.36
2019-05-07T15:29:52.649Z,100507.70
2019-05-07T15:32:21.813Z,100501.55
2019-05-07T15:34:52.546Z,100499.52
2019-05-07T15:37:20.853Z,100499.63
2019-05-07T15:39:49.318Z,100499.70
2019-05-07T15:42:17.783Z,100494.45
2019-05-07T15:44:46.265Z,100493.55
2019-05-07T15:47:19.087Z,100488.35
2019-05-07T15:49:47.537Z,100497.52
2019-05-07T15:52:23.103Z,100487.56
2019-05-07T15:54:52.219Z,100490.10
2019-05-07T15:57:22.425Z,100488.66
2019-05-07T15:59:52.539Z,100483.94
2019-05-07T16:02:22.661Z,100484.17
2019-05-07T16:04:51.113Z,100483.25
2019-05-07T16:07:19.547Z,100476.68
2019-05-07T16:09:48.029Z,100477.97
2019-05-07T16:12:18.101Z,100478.80
2019-05-07T16:14:46.511Z,100479.05
2019-05-07T16:17:16.566Z,100471.91
2019-05-07T16:19:45.014Z,100472.77
2019-05-07T16:22:15.083Z,100465.30
2019-05-07T16:24:43.497Z,100470.06
2019-05-07T16:27:12.255Z,100466.02
2019-05-07T16:29:42.606Z,100465.05
2019-05-07T16:32:11.028Z,100467.84
2019-05-07T16:34:39.531Z,100466.08
2019-05-07T16:37:08.435Z,100462.22
2019-05-07T16:39:37.259Z,100458.72
2019-05-07T16:42:05.762Z,100456.03
2019-05-07T16:44:34.263Z,100459.08
2019-05-07T16:47:02.929Z,100455.09
2019-05-07T16:49:31.953Z,100454.45
2019-05-07T16:52:01.852Z,100451.05
2019-05-07T16:54:30.653Z,100448.00
2019-05-07T16:57:16.195Z,100449.28
2019-05-07T16:59:44.824Z,100445.81
2019-05-07T17:02:14.883Z,100447.37
2019-05-07T17:05:03.137Z,100447.50
2019-05-07T17:07:32.120Z,100448.08
2019-05-07T17:10:02.653Z,100445.51
2019-05-07T17:12:32.379Z,100449.23
2019-05-07T17:15:02.971Z,100449.16
2019-05-07T17:17:32.076Z,100444.23
2019-05-07T17:20:02.700Z,100450.86
2019-05-07T17:22:32.295Z,100451.39
2019-05-07T17:25:03.166Z,100444.59
2019-05-07T17:27:32.236Z,100442.05
2019-05-07T17:30:02.939Z,100446.67
2019-05-07T17:32:32.093Z,100451.48
2019-05-07T17:35:02.607Z,100456.39
2019-05-07T17:37:30.835Z,100457.59
2019-05-07T17:39:59.260Z,100456.81
2019-05-07T17:42:27.673Z,100453.07
2019-05-07T17:44:56.202Z,100457.70
2019-05-07T17:47:24.876Z,100456.08
2019-05-07T17:49:53.376Z,100461.72
2019-05-07T17:52:22.749Z,100462.27
2019-05-07T17:54:52.759Z,100460.09
2019-05-07T17:57:22.757Z,100451.00
2019-05-07T17:59:52.573Z,100453.27
2019-05-07T18:02:25.879Z,100454.23
2019-05-07T18:04:54.756Z,100451.40
2019-05-07T18:07:24.116Z,100451.56
2019-05-07T18:09:52.559Z,100450.08
2019-05-07T18:12:22.469Z,100454.69
2019-05-07T18:14:52.787Z,100451.03
2019-05-07T18:17:23.181Z,100446.47
2019-05-07T18:19:51.594Z,100448.75
2019-05-07T18:22:21.969Z,100443.31
2019-05-07T18:24:50.230Z,100441.83
2019-05-07T18:27:22.327Z,100444.23
2019-05-07T18:29:52.253Z,100441.78
2019-05-07T18:32:21.907Z,100441.12
2019-05-07T18:34:51.906Z,100437.66
2019-05-07T18:37:22.731Z,100440.70
2019-05-07T18:39:52.189Z,100443.77
2019-05-07T18:42:22.191Z,100440.39
2019-05-07T18:44:52.387Z,100436.02
2019-05-07T18:47:22.308Z,100436.98
2019-05-07T18:49:51.922Z,100431.92
2019-05-07T18:52:22.822Z,100437.05
2019-05-07T18:54:52.047Z,100432.93
2019-05-07T18:57:22.189Z,100436.00
2019-05-07T18:59:53.066Z,100433.44
2019-05-07T19:02:22.584Z,100434.72
2019-05-07T19:04:51.892Z,100445.73
2019-05-07T19:07:22.822Z,100442.75
2019-05-07T19:09:51.688Z,100447.55
2019-05-07T19:12:22.409Z,100444.16
2019-05-07T19:14:51.734Z,100445.14
2019-05-07T19:17:21.875Z,100446.05
2019-05-07T19:19:52.569Z,100447.45
2019-05-07T19:22:22.237Z,100445.33
2019-05-07T19:24:52.664Z,100447.45
2019-05-07T19:27:22.010Z,100442.28
2019-05-07T19:29:50.581Z,100445.77
2019-05-07T19:32:18.977Z,100439.36
2019-05-07T19:34:47.422Z,100441.52
2019-05-07T19:37:15.829Z,100438.62
2019-05-07T19:39:44.316Z,100445.39
2019-05-07T19:42:12.798Z,100443.73
2019-05-07T19:44:42.332Z,100445.00
2019-05-07T19:47:12.664Z,100432.83
2019-05-07T19:49:41.886Z,100432.02
2019-05-07T19:52:12.413Z,100432.99
2019-05-07T19:54:42.991Z,100424.57
2019-05-07T19:57:12.547Z,100428.47
2019-05-07T19:59:42.858Z,100425.62
2019-05-07T20:02:12.743Z,100429.02
2019-05-07T20:04:42.750Z,100426.09
2019-05-07T20:07:12.231Z,100423.52
2019-05-07T20:09:42.486Z,100421.48
2019-05-07T20:12:11.462Z,100416.45
2019-05-07T20:14:42.085Z,100416.52
2019-05-07T20:17:12.157Z,100417.00
2019-05-07T20:19:44.762Z,100419.17
2019-05-07T20:22:13.332Z,100417.50
2019-05-07T20:24:42.048Z,100417.63
2019-05-07T20:27:12.454Z,100415.07
2019-05-07T20:29:42.801Z,100407.41
2019-05-07T20:32:11.425Z,100410.42
2019-05-07T20:34:39.851Z,100409.23
2019-05-07T20:37:08.470Z,100413.13
2019-05-07T20:39:37.749Z,100406.92
2019-05-07T20:42:06.801Z,100408.69
2019-05-07T20:44:35.366Z,100406.20
2019-05-07T20:47:03.973Z,100404.98
2019-05-07T20:49:32.957Z,100407.15
2019-05-07T20:52:01.443Z,100401.22
2019-05-07T20:54:32.510Z,100402.09
2019-05-07T20:57:08.622Z,100394.89
2019-05-07T20:59:37.179Z,100397.01
2019-05-07T21:02:05.727Z,100392.89
2019-05-07T21:04:35.443Z,100389.97
2019-05-07T21:07:04.249Z,100389.56
2019-05-07T21:09:33.068Z,100387.06
2019-05-07T21:12:01.653Z,100387.52
2019-05-07T21:14:32.457Z,100387.07
2019-05-07T21:17:01.549Z,100378.59
2019-05-07T21:19:30.250Z,100386.28
2019-05-07T21:21:58.868Z,100379.91
2019-05-07T21:24:27.354Z,100375.25
2019-05-07T21:26:55.863Z,100377.40
2019-05-07T21:29:24.337Z,100372.30
2019-05-07T21:31:52.842Z,100367.61
2019-05-07T21:34:23.061Z,100368.49
2019-05-07T21:36:53.999Z,100368.94
2019-05-07T21:39:22.683Z,100367.75
2019-05-07T21:41:56.709Z,100369.12
2019-05-07T21:44:25.463Z,100367.05
2019-05-07T21:46:54.232Z,100366.66
2019-05-07T21:49:22.992Z,100367.48
2019-05-07T21:51:52.271Z,100359.05
2019-05-07T21:54:23.723Z,100356.94
2019-05-07T21:56:57.749Z,100353.55
2019-05-07T21:59:33.520Z,100355.30
2019-05-07T22:02:02.764Z,100353.20
2019-05-07T22:04:31.159Z,100343.45
2019-05-07T22:07:02.770Z,100340.13
2019-05-07T22:09:33.024Z,100350.36
2019-05-07T22:12:03.673Z,100341.91
2019-05-07T22:14:32.993Z,100340.20
2019-05-07T22:17:02.105Z,100333.03
2019-05-07T22:19:33.560Z,100333.47
2019-05-07T22:22:02.896Z,100330.09
2019-05-07T22:24:32.901Z,100325.02
2019-05-07T22:27:01.724Z,100329.25
2019-05-07T22:29:31.566Z,100323.75
2019-05-07T22:32:04.585Z,100322.51
2019-05-07T22:34:34.648Z,100317.88
2019-05-07T22:37:09.525Z,100316.20
2019-05-07T22:39:37.942Z,100312.41
2019-05-07T22:42:06.365Z,100303.08
2019-05-07T22:44:34.783Z,100302.70
2019-05-07T22:47:07.547Z,100301.86
2019-05-07T22:49:35.990Z,100296.39
2019-05-07T22:52:04.392Z,100290.41
2019-05-07T22:54:32.816Z,100286.23
2019-05-07T22:57:19.017Z,100283.28
2019-05-07T22:59:47.419Z,100280.33
2019-05-07T23:02:15.894Z,100274.00
2019-05-07T23:04:44.312Z,100276.11
2019-05-07T23:07:12.880Z,100272.30
2019-05-07T23:09:41.993Z,100271.91
2019-05-07T23:12:12.410Z,100271.92
2019-05-07T23:14:41.139Z,100274.48
2019-05-07T23:17:09.575Z,100272.79
2019-05-07T23:19:37.984Z,100263.48
2019-05-07T23:22:06.450Z,100265.23
2019-05-07T23:24:34.884Z,100262.67
2019-05-07T23:27:03.282Z,100253.39
2019-05-07T23:29:33.019Z,100254.66
2019-05-07T23:32:02.082Z,100249.61
2019-05-07T23:34:32.598Z,100247.08
2019-05-07T23:37:02.508Z,100239.02
2019-05-07T23:39:35.659Z,100240.30
2019-05-07T23:42:05.718Z,100236.48
2019-05-07T23:44:34.136Z,100234.38
2019-05-07T23:47:02.861Z,100227.17
2019-05-07T23:49:32.231Z,100227.17
2019-05-07T23:52:02.391Z,100228.02
2019-05-07T23:54:31.919Z,100227.20
2019-05-07T23:57:07.140Z,100221.70
2019-05-07T23:59:32.689Z,100220.43
